Walbridge, Ohio
Current Conditions -  °F | °C
As of 12:53 AM on Thursday 29 Jan 2015 (Local Time) from KTDZ Reporting Station
Scattered Clouds Scattered Clouds  
Wind Chill: 15°   Ceiling: Unl
Heat Index: 27°   Visibility: 10mi
Dew Point: 16°   Wind: 16mph
Humidity: 63%   Direction: 160°SSE
Pressure: 30.08"   Gusts: NA
Location:  41.59°N, 83.49°W
Report Text: KTDZ 290553Z AUTO 16014KT 10SM SCT110 M03/M09 A3008 RMK AO2 SLP195 T10281089 11028 21056 56040 TSNO
Loading
Personal Weather Stations






























Interactive Weather Map New forecast layout! Learn more

10-Day Weather Forecast

Advertisements
Track Severe Weather on mobile